createdAt,value
2022-12-25T00:00:20.592Z,7.08
2022-12-25T00:02:49.003Z,7.07
2022-12-25T00:05:16.934Z,6.96
2022-12-25T00:07:44.789Z,6.96
2022-12-25T00:10:13.027Z,7.10
2022-12-25T00:12:40.825Z,7.30
2022-12-25T00:15:09.151Z,7.20
2022-12-25T00:17:36.966Z,7.17
2022-12-25T00:20:05.226Z,7.11
2022-12-25T00:22:33.111Z,7.15
2022-12-25T00:25:00.902Z,6.91
2022-12-25T00:27:32.780Z,6.78
2022-12-25T00:30:01.254Z,6.84
2022-12-25T00:32:29.311Z,6.78
2022-12-25T00:34:57.129Z,6.85
2022-12-25T00:37:25.041Z,6.70
2022-12-25T00:39:52.952Z,6.56
2022-12-25T00:42:20.940Z,6.58
2022-12-25T00:44:50.107Z,6.59
2022-12-25T00:47:18.779Z,6.49
2022-12-25T00:49:46.840Z,6.49
2022-12-25T00:52:14.750Z,6.44
2022-12-25T00:54:42.518Z,6.36
2022-12-25T00:57:10.473Z,6.31
2022-12-25T00:59:38.391Z,6.25
2022-12-25T01:02:24.808Z,6.13
2022-12-25T01:04:57.147Z,6.14
2022-12-25T01:07:26.888Z,6.08
2022-12-25T01:10:13.220Z,6.22
2022-12-25T01:12:43.511Z,6.13
2022-12-25T01:15:12.596Z,5.98
2022-12-25T01:17:41.011Z,5.96
2022-12-25T01:20:09.763Z,5.81
2022-12-25T01:22:37.749Z,5.71
2022-12-25T01:25:06.880Z,5.65
2022-12-25T01:27:35.204Z,5.61
2022-12-25T01:30:03.114Z,5.61
2022-12-25T01:32:31.299Z,5.72
2022-12-25T01:35:00.076Z,5.78
2022-12-25T01:37:27.872Z,5.74
2022-12-25T01:39:55.724Z,5.84
2022-12-25T01:42:26.676Z,5.81
2022-12-25T01:44:54.500Z,5.87
2022-12-25T01:47:22.400Z,5.79
2022-12-25T01:49:51.643Z,5.68
2022-12-25T01:52:24.488Z,5.62
2022-12-25T01:55:06.298Z,5.72
2022-12-25T01:57:38.144Z,5.82
2022-12-25T02:00:07.987Z,5.81
2022-12-25T02:02:37.339Z,5.74
2022-12-25T02:05:28.869Z,5.68
2022-12-25T02:08:01.469Z,5.64
2022-12-25T02:10:29.442Z,5.50
2022-12-25T02:12:57.541Z,5.57
2022-12-25T02:15:33.862Z,5.58
2022-12-25T02:18:10.997Z,5.42
2022-12-25T02:20:57.604Z,5.46
2022-12-25T02:23:31.186Z,5.40
2022-12-25T02:26:13.090Z,5.50
2022-12-25T02:28:52.479Z,5.48
2022-12-25T02:31:27.977Z,5.55
2022-12-25T02:34:11.944Z,5.73
2022-12-25T02:36:55.352Z,5.76
2022-12-25T02:40:00.902Z,5.76
2022-12-25T02:43:13.338Z,5.67
2022-12-25T02:46:00.069Z,5.75
2022-12-25T02:48:52.641Z,5.73
2022-12-25T02:51:42.805Z,5.57
2022-12-25T02:54:33.366Z,5.52
2022-12-25T02:57:23.811Z,5.45
2022-12-25T03:00:14.885Z,5.43
2022-12-25T03:03:02.561Z,5.33
2022-12-25T03:05:51.482Z,5.23
2022-12-25T03:08:31.269Z,5.17
2022-12-25T03:11:22.848Z,5.19
2022-12-25T03:13:54.952Z,5.24
2022-12-25T03:16:42.313Z,5.18
2022-12-25T03:19:28.517Z,5.16
2022-12-25T03:22:15.283Z,5.09
2022-12-25T03:25:02.496Z,5.13
2022-12-25T03:27:33.520Z,5.07
2022-12-25T03:30:20.428Z,5.01
2022-12-25T03:32:58.813Z,5.01
2022-12-25T03:35:46.472Z,4.97
2022-12-25T03:38:44.497Z,4.94
2022-12-25T03:42:02.169Z,4.87
2022-12-25T03:45:23.585Z,4.92
2022-12-25T03:48:10.224Z,4.94
2022-12-25T03:51:05.696Z,5.02
2022-12-25T03:54:01.971Z,5.04
2022-12-25T03:56:51.244Z,5.06
2022-12-25T03:59:40.880Z,5.09
2022-12-25T04:02:27.806Z,5.12
2022-12-25T04:05:14.609Z,5.24
2022-12-25T04:08:01.184Z,5.41
2022-12-25T04:10:47.382Z,5.57
2022-12-25T04:13:34.920Z,5.40
2022-12-25T04:16:21.420Z,5.36
2022-12-25T04:19:08.109Z,5.31
2022-12-25T04:21:54.472Z,5.29
2022-12-25T04:24:41.122Z,5.22
2022-12-25T04:27:27.632Z,5.25
2022-12-25T04:30:14.047Z,5.25
2022-12-25T04:33:00.543Z,5.24
2022-12-25T04:35:47.227Z,5.23
2022-12-25T04:38:15.166Z,5.32
2022-12-25T04:40:42.978Z,5.32
2022-12-25T04:43:10.818Z,5.28
2022-12-25T04:45:38.643Z,5.30
2022-12-25T04:48:06.673Z,5.23
2022-12-25T04:50:34.540Z,5.32
2022-12-25T04:53:02.353Z,5.20
2022-12-25T04:55:30.161Z,5.25
2022-12-25T04:57:57.965Z,5.23
2022-12-25T05:00:25.808Z,5.17
2022-12-25T05:02:53.973Z,5.06
2022-12-25T05:05:21.988Z,5.11
2022-12-25T05:07:50.003Z,5.24
2022-12-25T05:10:17.912Z,5.25
2022-12-25T05:12:45.871Z,5.32
2022-12-25T05:15:13.761Z,5.38
2022-12-25T05:17:41.656Z,5.50
2022-12-25T05:20:09.554Z,5.61
2022-12-25T05:22:37.403Z,5.61
2022-12-25T05:25:05.543Z,5.65
2022-12-25T05:27:33.386Z,5.58
2022-12-25T05:30:01.260Z,5.72
2022-12-25T05:32:29.019Z,5.84
2022-12-25T05:34:56.835Z,5.63
2022-12-25T05:37:24.592Z,5.44
2022-12-25T05:39:52.553Z,5.44
2022-12-25T05:42:20.294Z,5.52
2022-12-25T05:44:48.241Z,5.43
2022-12-25T05:47:16.106Z,5.38
2022-12-25T05:49:44.082Z,5.37
2022-12-25T05:52:12.233Z,5.28
2022-12-25T05:54:40.217Z,5.35
2022-12-25T05:57:08.124Z,5.39
2022-12-25T05:59:35.978Z,5.44
2022-12-25T06:02:03.981Z,5.44
2022-12-25T06:04:31.903Z,5.47
2022-12-25T06:06:59.742Z,5.60
2022-12-25T06:09:27.682Z,5.71
2022-12-25T06:11:55.501Z,5.74
2022-12-25T06:14:23.330Z,5.80
2022-12-25T06:16:52.981Z,6.02
2022-12-25T06:19:22.035Z,6.07
2022-12-25T06:21:53.866Z,6.15
2022-12-25T06:24:23.566Z,6.24
2022-12-25T06:26:51.934Z,6.13
2022-12-25T06:29:19.806Z,6.24
2022-12-25T06:31:47.710Z,6.30
2022-12-25T06:34:16.786Z,6.28
2022-12-25T06:36:44.708Z,6.39
2022-12-25T06:39:12.508Z,6.32
2022-12-25T06:41:40.360Z,6.36
2022-12-25T06:44:11.850Z,6.42
2022-12-25T06:46:40.657Z,6.41
2022-12-25T06:49:10.090Z,6.40
2022-12-25T06:51:44.141Z,6.46
2022-12-25T06:54:13.087Z,6.59
2022-12-25T06:56:40.896Z,6.61
2022-12-25T06:59:10.402Z,6.57
2022-12-25T07:01:52.431Z,6.48
2022-12-25T07:04:32.250Z,6.60
2022-12-25T07:07:06.128Z,6.74
2022-12-25T07:09:39.202Z,6.79
2022-12-25T07:12:19.683Z,6.65
2022-12-25T07:14:50.183Z,6.66
2022-12-25T07:17:19.030Z,6.73
2022-12-25T07:19:47.459Z,6.75
2022-12-25T07:22:16.731Z,6.78
2022-12-25T07:24:44.661Z,6.84
2022-12-25T07:27:12.574Z,6.88
2022-12-25T07:29:40.476Z,6.90
2022-12-25T07:32:08.964Z,6.96
2022-12-25T07:34:36.923Z,6.96
2022-12-25T07:37:04.803Z,7.08
2022-12-25T07:39:34.253Z,7.07
2022-12-25T07:42:02.164Z,7.15
2022-12-25T07:44:29.896Z,7.19
2022-12-25T07:46:57.789Z,7.17
2022-12-25T07:49:25.679Z,7.26
2022-12-25T07:51:53.521Z,7.31
2022-12-25T07:54:21.410Z,7.36
2022-12-25T07:56:52.798Z,7.35
2022-12-25T07:59:20.871Z,7.48
2022-12-25T08:01:50.635Z,7.42
2022-12-25T08:04:18.758Z,7.60
2022-12-25T08:06:46.722Z,7.66
2022-12-25T08:09:14.572Z,7.75
2022-12-25T08:11:46.950Z,7.80
2022-12-25T08:14:15.778Z,7.82
2022-12-25T08:16:44.807Z,7.71
2022-12-25T08:19:14.667Z,7.80
2022-12-25T08:21:42.532Z,7.96
2022-12-25T08:24:10.971Z,8.15
2022-12-25T08:26:38.728Z,8.14
2022-12-25T08:29:06.622Z,8.33
2022-12-25T08:31:37.196Z,8.40
2022-12-25T08:34:07.544Z,8.67
2022-12-25T08:36:35.712Z,8.78
2022-12-25T08:39:04.708Z,8.77
2022-12-25T08:41:32.762Z,8.87
2022-12-25T08:44:00.684Z,8.93
2022-12-25T08:46:28.772Z,9.06
2022-12-25T08:48:57.196Z,9.17
2022-12-25T08:51:26.641Z,9.02
2022-12-25T08:54:00.046Z,9.02
2022-12-25T08:56:29.067Z,9.10
2022-12-25T08:58:56.983Z,9.27
2022-12-25T09:01:24.985Z,9.27
2022-12-25T09:03:53.024Z,9.33
2022-12-25T09:06:20.875Z,9.39
2022-12-25T09:08:49.934Z,9.23
2022-12-25T09:11:20.153Z,9.32
2022-12-25T09:13:48.881Z,9.37
2022-12-25T09:16:20.482Z,9.50
2022-12-25T09:18:48.854Z,9.53
2022-12-25T09:21:18.345Z,9.46
2022-12-25T09:23:46.195Z,9.07
2022-12-25T09:26:17.133Z,9.32
2022-12-25T09:28:51.254Z,9.68
2022-12-25T09:31:22.245Z,9.91
2022-12-25T09:33:51.831Z,10.17
2022-12-25T09:36:37.841Z,10.25
2022-12-25T09:39:09.593Z,10.50
2022-12-25T09:41:40.080Z,10.42
2022-12-25T09:44:23.204Z,10.70
2022-12-25T09:46:54.780Z,10.68
2022-12-25T09:49:41.019Z,10.84
2022-12-25T09:52:18.584Z,10.74
2022-12-25T09:55:19.896Z,10.89
2022-12-25T09:57:54.829Z,11.19
2022-12-25T10:00:33.718Z,11.23
2022-12-25T10:03:33.730Z,11.32
2022-12-25T10:06:22.667Z,11.38
2022-12-25T10:09:13.655Z,11.28
2022-12-25T10:12:03.435Z,11.24
2022-12-25T10:14:49.829Z,11.26
2022-12-25T10:17:41.797Z,11.62
2022-12-25T10:20:22.847Z,11.66
2022-12-25T10:22:54.709Z,11.52
2022-12-25T10:25:25.046Z,11.67
2022-12-25T10:28:04.035Z,11.81
2022-12-25T10:30:32.518Z,11.84
2022-12-25T10:33:00.821Z,11.90
2022-12-25T10:35:30.897Z,11.87
2022-12-25T10:38:14.808Z,11.48
2022-12-25T10:41:05.515Z,11.66
2022-12-25T10:43:58.782Z,11.94
2022-12-25T10:46:31.379Z,12.09
2022-12-25T10:49:02.472Z,12.17
2022-12-25T10:51:35.162Z,12.22
2022-12-25T10:54:19.104Z,12.21
2022-12-25T10:57:02.820Z,12.41
2022-12-25T10:59:35.861Z,12.49
2022-12-25T11:02:28.752Z,12.57
2022-12-25T11:05:07.241Z,12.67
2022-12-25T11:07:51.504Z,12.74
2022-12-25T11:10:38.320Z,12.93
2022-12-25T11:13:07.906Z,12.99
2022-12-25T11:16:07.428Z,12.82
2022-12-25T11:18:50.106Z,13.02
2022-12-25T11:21:25.463Z,13.02
2022-12-25T11:24:05.571Z,13.11
2022-12-25T11:26:51.183Z,13.25
2022-12-25T11:29:24.752Z,13.25
2022-12-25T11:31:55.837Z,13.22
2022-12-25T11:34:41.309Z,13.25
2022-12-25T11:37:16.414Z,12.95
2022-12-25T11:39:44.483Z,12.90
2022-12-25T11:42:24.504Z,12.98
2022-12-25T11:44:55.997Z,13.11
2022-12-25T11:47:32.678Z,13.09
2022-12-25T11:50:06.675Z,13.28
2022-12-25T11:52:37.560Z,13.41
2022-12-25T11:55:20.461Z,13.54
2022-12-25T11:57:53.459Z,13.56
2022-12-25T12:00:30.505Z,13.45
2022-12-25T12:03:06.747Z,13.37
2022-12-25T12:05:43.285Z,13.50
2022-12-25T12:08:11.897Z,13.54
2022-12-25T12:11:00.993Z,13.60
2022-12-25T12:13:45.865Z,13.73
2022-12-25T12:16:13.782Z,13.48
2022-12-25T12:18:48.178Z,13.48
2022-12-25T12:21:18.414Z,13.36
2022-12-25T12:24:07.519Z,13.24
2022-12-25T12:26:39.280Z,13.25
2022-12-25T12:29:23.675Z,12.68
2022-12-25T12:31:52.648Z,13.00
2022-12-25T12:34:40.498Z,13.24
2022-12-25T12:37:25.208Z,13.10
2022-12-25T12:39:55.001Z,13.13
2022-12-25T12:42:28.306Z,13.26
2022-12-25T12:45:06.565Z,13.39
2022-12-25T12:47:49.578Z,12.98
2022-12-25T12:50:38.294Z,12.96
2022-12-25T12:53:27.573Z,12.90
2022-12-25T12:55:55.885Z,12.99
2022-12-25T12:58:36.004Z,13.13
2022-12-25T13:01:09.828Z,12.96
2022-12-25T13:04:00.173Z,13.11
2022-12-25T13:06:39.918Z,13.07
2022-12-25T13:09:43.090Z,12.74
2022-12-25T13:12:13.034Z,12.61
2022-12-25T13:14:46.643Z,12.72
2022-12-25T13:17:26.127Z,12.82
2022-12-25T13:19:59.818Z,12.73
2022-12-25T13:22:34.644Z,12.70
2022-12-25T13:25:06.023Z,12.85
2022-12-25T13:27:34.430Z,12.74
2022-12-25T13:30:13.826Z,12.67
2022-12-25T13:32:43.832Z,12.65
2022-12-25T13:35:15.805Z,12.72
2022-12-25T13:37:45.432Z,12.79
2022-12-25T13:40:26.240Z,12.81
2022-12-25T13:43:01.769Z,12.85
2022-12-25T13:45:31.434Z,12.61
2022-12-25T13:48:10.334Z,12.58
2022-12-25T13:50:38.456Z,12.56
2022-12-25T13:53:17.981Z,12.58
2022-12-25T13:55:54.613Z,12.55
2022-12-25T13:58:29.066Z,12.46
2022-12-25T14:00:58.119Z,12.39
2022-12-25T14:03:25.879Z,12.36
2022-12-25T14:06:01.062Z,12.21
2022-12-25T14:08:34.425Z,12.11
2022-12-25T14:11:05.789Z,12.07
2022-12-25T14:13:38.121Z,12.12
2022-12-25T14:16:08.105Z,12.13
2022-12-25T14:18:35.946Z,12.17
2022-12-25T14:21:05.799Z,12.08
2022-12-25T14:23:44.542Z,12.06
2022-12-25T14:26:30.660Z,11.91
2022-12-25T14:29:01.099Z,11.97
2022-12-25T14:31:29.810Z,11.96
2022-12-25T14:34:00.509Z,11.93
2022-12-25T14:36:29.589Z,11.89
2022-12-25T14:38:59.051Z,11.83
2022-12-25T14:41:37.167Z,11.84
2022-12-25T14:44:32.956Z,11.83
2022-12-25T14:47:27.322Z,11.83
2022-12-25T14:49:55.293Z,11.81
2022-12-25T14:52:28.837Z,11.75
2022-12-25T14:55:05.115Z,11.73
2022-12-25T14:57:40.746Z,11.70
2022-12-25T15:00:25.988Z,11.68
2022-12-25T15:02:57.353Z,11.66
2022-12-25T15:05:29.836Z,11.65
2022-12-25T15:08:03.316Z,11.66
2022-12-25T15:13:19.391Z,11.59
2022-12-25T15:16:13.379Z,11.54
2022-12-25T15:18:45.661Z,11.54
2022-12-25T15:21:34.677Z,11.50
2022-12-25T15:24:03.355Z,11.44
2022-12-25T15:26:32.470Z,11.45
2022-12-25T15:29:00.460Z,11.40
2022-12-25T15:31:31.456Z,11.34
2022-12-25T15:34:02.216Z,11.34
2022-12-25T15:36:30.757Z,11.33
2022-12-25T15:38:58.640Z,11.27
2022-12-25T15:41:49.381Z,11.21
2022-12-25T15:44:17.612Z,11.17
2022-12-25T15:46:46.268Z,11.15
2022-12-25T15:49:15.391Z,11.12
2022-12-25T15:51:44.490Z,11.13
2022-12-25T15:54:12.955Z,11.10
2022-12-25T15:56:52.453Z,11.06
2022-12-25T15:59:21.518Z,11.04
2022-12-25T16:01:51.593Z,11.08
2022-12-25T16:04:20.453Z,11.07
2022-12-25T16:06:48.658Z,11.11
2022-12-25T16:09:17.890Z,11.06
2022-12-25T16:11:46.306Z,11.02
2022-12-25T16:14:14.429Z,10.97
2022-12-25T16:16:42.586Z,10.93
2022-12-25T16:19:10.533Z,10.91
2022-12-25T16:21:41.376Z,11.02
2022-12-25T16:24:09.948Z,10.99
2022-12-25T16:26:37.967Z,10.88
2022-12-25T16:29:07.517Z,10.85
2022-12-25T16:31:38.632Z,10.84
2022-12-25T16:34:07.603Z,10.84
2022-12-25T16:36:37.100Z,10.84
2022-12-25T16:39:05.661Z,10.78
2022-12-25T16:41:34.545Z,10.77
2022-12-25T16:44:09.645Z,10.78
2022-12-25T16:46:40.181Z,10.75
2022-12-25T16:49:08.881Z,10.72
2022-12-25T16:51:36.724Z,10.72
2022-12-25T16:54:04.742Z,10.78
2022-12-25T16:56:32.595Z,10.75
2022-12-25T16:59:01.204Z,10.78
2022-12-25T17:01:29.652Z,10.90
2022-12-25T17:04:03.071Z,11.14
2022-12-25T17:06:31.081Z,10.94
2022-12-25T17:09:00.429Z,10.87
2022-12-25T17:11:30.279Z,10.80
2022-12-25T17:14:02.143Z,10.85
2022-12-25T17:16:33.110Z,10.81
2022-12-25T17:19:13.034Z,10.78
2022-12-25T17:21:40.947Z,10.73
2022-12-25T17:24:09.921Z,10.65
2022-12-25T17:26:38.201Z,10.62
2022-12-25T17:29:06.126Z,10.61
2022-12-25T17:31:35.131Z,10.59
2022-12-25T17:34:04.248Z,10.65
2022-12-25T17:36:33.167Z,10.63
2022-12-25T17:39:05.542Z,10.60
2022-12-25T17:41:33.868Z,10.59
2022-12-25T17:44:01.899Z,10.61
2022-12-25T17:46:31.201Z,10.59
2022-12-25T17:49:01.324Z,10.57
2022-12-25T17:51:31.054Z,10.58
2022-12-25T17:54:03.296Z,10.51
2022-12-25T17:56:32.129Z,10.53
2022-12-25T17:59:06.946Z,10.51
2022-12-25T18:01:38.590Z,10.47
2022-12-25T18:04:07.282Z,10.47
2022-12-25T18:06:36.595Z,10.53
2022-12-25T18:09:06.510Z,10.52
2022-12-25T18:11:36.925Z,10.50
2022-12-25T18:14:10.914Z,10.50
2022-12-25T18:16:44.339Z,10.48
2022-12-25T18:19:17.149Z,10.60
2022-12-25T18:21:47.857Z,10.56
2022-12-25T18:24:17.332Z,10.59
2022-12-25T18:26:47.493Z,10.50
2022-12-25T18:29:16.735Z,10.53
2022-12-25T18:31:44.756Z,10.50
2022-12-25T18:34:12.743Z,10.51
2022-12-25T18:36:41.365Z,10.45
2022-12-25T18:39:12.402Z,10.51
2022-12-25T18:42:00.199Z,10.54
2022-12-25T18:44:32.153Z,10.54
2022-12-25T18:47:00.230Z,10.54
2022-12-25T18:49:28.118Z,10.54
2022-12-25T18:52:49.908Z,10.56
2022-12-25T18:54:44.592Z,10.60
2022-12-25T18:57:12.477Z,10.59
2022-12-25T18:59:41.963Z,10.56
2022-12-25T19:02:17.346Z,10.53
2022-12-25T19:04:45.660Z,10.50
2022-12-25T19:07:13.572Z,10.49
2022-12-25T19:09:41.781Z,10.47
2022-12-25T19:12:09.827Z,10.48
2022-12-25T19:14:47.691Z,10.47
2022-12-25T19:17:17.632Z,10.48
2022-12-25T19:19:46.289Z,10.46
2022-12-25T19:22:14.504Z,10.47
2022-12-25T19:24:42.859Z,10.47
2022-12-25T19:27:12.018Z,10.45
2022-12-25T19:29:39.912Z,10.43
2022-12-25T19:32:09.294Z,10.41
2022-12-25T19:34:40.762Z,10.43
2022-12-25T19:37:10.844Z,10.45
2022-12-25T19:39:41.968Z,10.49
2022-12-25T19:42:11.798Z,10.52
2022-12-25T19:44:41.284Z,10.42
2022-12-25T19:47:11.643Z,10.48
2022-12-25T19:49:40.889Z,10.38
2022-12-25T19:52:10.413Z,10.35
2022-12-25T19:54:38.648Z,10.30
2022-12-25T19:57:07.550Z,10.30
2022-12-25T19:59:36.028Z,10.30
2022-12-25T20:02:06.194Z,10.26
2022-12-25T20:04:35.598Z,10.25
2022-12-25T20:07:04.489Z,10.22
2022-12-25T20:09:32.856Z,10.18
2022-12-25T20:12:00.825Z,10.11
2022-12-25T20:14:28.789Z,10.13
2022-12-25T20:16:56.826Z,10.16
2022-12-25T20:19:24.825Z,10.11
2022-12-25T20:21:54.887Z,10.10
2022-12-25T20:24:24.861Z,10.09
2022-12-25T20:26:58.892Z,10.07
2022-12-25T20:29:27.269Z,10.05
2022-12-25T20:31:55.122Z,10.08
2022-12-25T20:34:23.517Z,10.12
2022-12-25T20:36:51.633Z,10.11
2022-12-25T20:39:19.562Z,10.14
2022-12-25T20:41:47.760Z,10.16
2022-12-25T20:44:15.685Z,10.11
2022-12-25T20:46:46.025Z,10.09
2022-12-25T20:49:14.110Z,10.06
2022-12-25T20:51:42.192Z,10.08
2022-12-25T20:54:11.258Z,10.12
2022-12-25T20:56:40.392Z,10.15
2022-12-25T20:59:09.510Z,10.28
2022-12-25T21:01:37.542Z,10.19
2022-12-25T21:04:05.589Z,10.17
2022-12-25T21:06:33.858Z,10.29
2022-12-25T21:09:02.692Z,10.25
2022-12-25T21:11:31.639Z,10.22
2022-12-25T21:13:59.649Z,10.24
2022-12-25T21:16:28.503Z,10.24
2022-12-25T21:18:56.577Z,10.18
2022-12-25T21:21:25.068Z,10.15
2022-12-25T21:23:55.944Z,10.08
2022-12-25T21:26:29.816Z,10.20
2022-12-25T21:29:00.592Z,10.07
2022-12-25T21:31:29.350Z,10.11
2022-12-25T21:33:57.858Z,10.04
2022-12-25T21:36:34.696Z,10.00
2022-12-25T21:39:05.686Z,10.05
2022-12-25T21:41:35.895Z,10.06
2022-12-25T21:44:04.157Z,9.97
2022-12-25T21:46:32.143Z,10.03
2022-12-25T21:49:00.901Z,10.02
2022-12-25T21:51:50.736Z,9.99
2022-12-25T21:54:22.520Z,10.01
2022-12-25T21:56:53.486Z,10.02
2022-12-25T21:59:22.744Z,10.06
2022-12-25T22:01:52.207Z,10.05
2022-12-25T22:04:22.294Z,9.99
2022-12-25T22:07:08.695Z,9.99
2022-12-25T22:09:37.668Z,9.94
2022-12-25T22:12:28.541Z,9.94
2022-12-25T22:15:05.737Z,10.01
2022-12-25T22:17:58.183Z,10.04
2022-12-25T22:20:34.751Z,9.94
2022-12-25T22:23:02.997Z,9.94
2022-12-25T22:25:33.797Z,9.89
2022-12-25T22:28:01.798Z,9.98
2022-12-25T22:30:30.122Z,9.88
2022-12-25T22:32:58.406Z,9.91
2022-12-25T22:35:26.242Z,9.92
2022-12-25T22:37:54.470Z,9.88
2022-12-25T22:40:22.547Z,9.88
2022-12-25T22:42:53.930Z,9.84
2022-12-25T22:45:22.036Z,9.84
2022-12-25T22:47:50.021Z,9.88
2022-12-25T22:50:18.949Z,9.88
2022-12-25T22:52:47.302Z,9.92
2022-12-25T22:55:18.463Z,9.95
2022-12-25T22:57:46.412Z,9.95
2022-12-25T23:00:17.153Z,9.96
2022-12-25T23:02:45.284Z,9.95
2022-12-25T23:05:13.366Z,9.93
2022-12-25T23:07:42.031Z,9.87
2022-12-25T23:10:10.596Z,9.95
2022-12-25T23:12:57.055Z,9.97
2022-12-25T23:15:24.976Z,10.04
2022-12-25T23:18:11.658Z,10.02
2022-12-25T23:20:57.816Z,10.03
2022-12-25T23:23:44.370Z,10.06
2022-12-25T23:26:14.767Z,10.02
2022-12-25T23:29:02.003Z,10.02
2022-12-25T23:31:34.826Z,9.92
2022-12-25T23:34:05.009Z,9.99
2022-12-25T23:36:33.693Z,10.07
2022-12-25T23:39:08.982Z,10.08
2022-12-25T23:41:42.526Z,10.15
2022-12-25T23:44:12.480Z,10.10
2022-12-25T23:46:41.896Z,10.12
2022-12-25T23:49:22.376Z,10.12
2022-12-25T23:51:51.525Z,10.09
2022-12-25T23:54:22.505Z,10.05
2022-12-25T23:56:50.785Z,10.07
2022-12-25T23:59:19.609Z,10.06
